Main page
METAR-TAF:

METAR-TAF

Airports :

Oil platform

D15-fa-1, Netherlands

latitude: 54-19-32N, longitude: 2-56-09E, elevation: 36 m

Current weather observation

The report was made 24 minutes ago, at 06:25 UTC
Wind 10 kt from the Northwest
Temperature 10°C
Humidity 71%
Pressure 991 hPa
Visibility 10 km or more

METAR: EHDV 050625Z AUTO 31010KT 9999 FEW019/// SCT032/// BKN041/// 10/05 Q0991

Time: 08:49 (06:49 UTC)


TAF: missing

Weather observations and forecasts of more than 4000 airports (METAR and TAF reports).

The available stations are represented by yellow and red dots on the map.

Hover mouse over dot to see the name of the station.

Then click to see weather observations and forecasts.

To change the map : click on the green buttons with a black cross to zoom in, on the green button with a dash to zoom out, or on the green arrows for adjacent maps.


METAR-TAF: